sensor_id;sensor_type;location;lat;lon;timestamp;pressure;altitude;pressure_sealevel;temperature;humidity
55610;BME280;41486;52.502;13.486;2023-01-28T00:00:54;102131.03;;;-1.12;100.00
55610;BME280;41486;52.502;13.486;2023-01-28T00:03:22;102132.81;;;-1.35;100.00
55610;BME280;41486;52.502;13.486;2023-01-28T00:05:50;102131.03;;;-1.13;100.00
55610;BME280;41486;52.502;13.486;2023-01-28T00:08:20;102135.41;;;-1.35;100.00
55610;BME280;41486;52.502;13.486;2023-01-28T00:10:48;102138.00;;;-1.40;100.00
55610;BME280;41486;52.502;13.486;2023-01-28T00:13:16;102138.03;;;-1.55;100.00
55610;BME280;41486;52.502;13.486;2023-01-28T00:15:54;102132.00;;;-1.59;100.00
55610;BME280;41486;52.502;13.486;2023-01-28T00:18:22;102134.59;;;-1.54;100.00
55610;BME280;41486;52.502;13.486;2023-01-28T00:20:57;102134.63;;;-1.57;100.00
55610;BME280;41486;52.502;13.486;2023-01-28T00:23:27;102129.44;;;-1.56;100.00
55610;BME280;41486;52.502;13.486;2023-01-28T00:25:57;102134.59;;;-1.50;100.00
55610;BME280;41486;52.502;13.486;2023-01-28T00:28:25;102134.63;;;-1.62;100.00
55610;BME280;41486;52.502;13.486;2023-01-28T00:30:54;102147.53;;;-1.65;100.00
55610;BME280;41486;52.502;13.486;2023-01-28T00:33:26;102148.41;;;-1.69;100.00
55610;BME280;41486;52.502;13.486;2023-01-28T00:35:58;102147.53;;;-1.70;100.00
55610;BME280;41486;52.502;13.486;2023-01-28T00:38:27;102148.38;;;-1.68;100.00
55610;BME280;41486;52.502;13.486;2023-01-28T00:40:55;102144.06;;;-1.63;100.00
55610;BME280;41486;52.502;13.486;2023-01-28T00:43:23;102144.94;;;-1.70;100.00
55610;BME280;41486;52.502;13.486;2023-01-28T00:45:51;102147.53;;;-1.71;100.00
55610;BME280;41486;52.502;13.486;2023-01-28T00:48:20;102149.25;;;-1.70;100.00
55610;BME280;41486;52.502;13.486;2023-01-28T00:50:48;102157.84;;;-1.71;100.00
55610;BME280;41486;52.502;13.486;2023-01-28T00:53:16;102157.84;;;-1.76;100.00
55610;BME280;41486;52.502;13.486;2023-01-28T00:55:44;102163.88;;;-1.79;100.00
55610;BME280;41486;52.502;13.486;2023-01-28T00:58:14;102158.72;;;-1.83;100.00
55610;BME280;41486;52.502;13.486;2023-01-28T01:00:42;102163.88;;;-1.88;100.00
55610;BME280;41486;52.502;13.486;2023-01-28T01:03:10;102166.47;;;-1.85;100.00
55610;BME280;41486;52.502;13.486;2023-01-28T01:05:39;102167.34;;;-1.86;100.00
55610;BME280;41486;52.502;13.486;2023-01-28T01:08:08;102163.03;;;-1.93;100.00
55610;BME280;41486;52.502;13.486;2023-01-28T01:10:36;102163.88;;;-1.86;100.00
55610;BME280;41486;52.502;13.486;2023-01-28T01:13:06;102165.59;;;-1.73;100.00
55610;BME280;41486;52.502;13.486;2023-01-28T01:15:34;102158.72;;;-1.89;100.00
55610;BME280;41486;52.502;13.486;2023-01-28T01:18:02;102163.00;;;-1.90;100.00
55610;BME280;41486;52.502;13.486;2023-01-28T01:20:31;102164.72;;;-1.92;100.00
55610;BME280;41486;52.502;13.486;2023-01-28T01:23:07;102163.88;;;-1.86;100.00
55610;BME280;41486;52.502;13.486;2023-01-28T01:25:35;102168.16;;;-1.95;100.00
55610;BME280;41486;52.502;13.486;2023-01-28T01:28:03;102160.44;;;-1.93;100.00
55610;BME280;41486;52.502;13.486;2023-01-28T01:30:31;102157.84;;;-1.81;100.00
55610;BME280;41486;52.502;13.486;2023-01-28T01:32:59;102158.72;;;-1.77;100.00
55610;BME280;41486;52.502;13.486;2023-01-28T01:35:27;102167.34;;;-1.77;100.00
55610;BME280;41486;52.502;13.486;2023-01-28T01:37:55;102162.16;;;-1.78;100.00
55610;BME280;41486;52.502;13.486;2023-01-28T01:40:25;102163.03;;;-1.81;100.00
55610;BME280;41486;52.502;13.486;2023-01-28T01:42:55;102163.84;;;-1.60;100.00
55610;BME280;41486;52.502;13.486;2023-01-28T01:45:23;102165.59;;;-1.65;100.00
55610;BME280;41486;52.502;13.486;2023-01-28T01:47:56;102168.09;;;-1.28;100.00
55610;BME280;41486;52.502;13.486;2023-01-28T01:50:28;102169.88;;;-1.46;100.00
55610;BME280;41486;52.502;13.486;2023-01-28T01:53:00;102180.19;;;-1.49;100.00
55610;BME280;41486;52.502;13.486;2023-01-28T01:55:34;102170.72;;;-1.50;100.00
55610;BME280;41486;52.502;13.486;2023-01-28T01:58:06;102174.19;;;-1.45;100.00
55610;BME280;41486;52.502;13.486;2023-01-28T02:00:35;102180.16;;;-1.27;100.00
55610;BME280;41486;52.502;13.486;2023-01-28T02:03:03;102175.91;;;-1.37;100.00
55610;BME280;41486;52.502;13.486;2023-01-28T02:05:31;102174.13;;;-1.21;100.00
55610;BME280;41486;52.502;13.486;2023-01-28T02:08:00;102180.16;;;-1.25;100.00
55610;BME280;41486;52.502;13.486;2023-01-28T02:10:46;102173.28;;;-1.22;100.00
55610;BME280;41486;52.502;13.486;2023-01-28T02:13:16;102175.84;;;-1.20;100.00
55610;BME280;41486;52.502;13.486;2023-01-28T02:15:46;102177.53;;;-1.12;100.00
55610;BME280;41486;52.502;13.486;2023-01-28T02:18:16;102173.19;;;-0.96;100.00
55610;BME280;41486;52.502;13.486;2023-01-28T02:21:12;102174.06;;;-0.98;100.00
55610;BME280;41486;52.502;13.486;2023-01-28T02:23:55;102164.59;;;-1.07;100.00
55610;BME280;41486;52.502;13.486;2023-01-28T02:26:52;102170.56;;;-0.86;100.00
55610;BME280;41486;52.502;13.486;2023-01-28T02:29:26;102171.50;;;-1.15;100.00
55610;BME280;41486;52.502;13.486;2023-01-28T02:32:02;102179.25;;;-1.06;100.00
55610;BME280;41486;52.502;13.486;2023-01-28T02:34:37;102174.94;;;-1.07;100.00
55610;BME280;41486;52.502;13.486;2023-01-28T02:37:11;102172.38;;;-1.08;100.00
55610;BME280;41486;52.502;13.486;2023-01-28T02:39:45;102168.91;;;-1.01;100.00
55610;BME280;41486;52.502;13.486;2023-01-28T02:42:18;102176.66;;;-1.01;100.00
55610;BME280;41486;52.502;13.486;2023-01-28T02:44:49;102181.78;;;-0.87;100.00
55610;BME280;41486;52.502;13.486;2023-01-28T02:47:17;102185.22;;;-0.91;100.00
55610;BME280;41486;52.502;13.486;2023-01-28T02:50:06;102183.53;;;-1.03;100.00
55610;BME280;41486;52.502;13.486;2023-01-28T02:52:47;102180.09;;;-1.07;100.00
55610;BME280;41486;52.502;13.486;2023-01-28T02:55:38;102174.88;;;-0.87;100.00
55610;BME280;41486;52.502;13.486;2023-01-28T02:58:15;102174.94;;;-1.07;100.00
55610;BME280;41486;52.502;13.486;2023-01-28T03:00:53;102180.97;;;-1.05;100.00
55610;BME280;41486;52.502;13.486;2023-01-28T03:03:27;102184.41;;;-0.98;100.00
55610;BME280;41486;52.502;13.486;2023-01-28T03:05:58;102181.81;;;-1.00;100.00
55610;BME280;41486;52.502;13.486;2023-01-28T03:08:36;102177.41;;;-0.74;100.00
55610;BME280;41486;52.502;13.486;2023-01-28T03:11:23;102177.47;;;-0.93;100.00
55610;BME280;41486;52.502;13.486;2023-01-28T03:14:10;102185.16;;;-0.76;100.00
55610;BME280;41486;52.502;13.486;2023-01-28T03:16:58;102186.94;;;-0.84;100.00
55610;BME280;41486;52.502;13.486;2023-01-28T03:19:45;102178.28;;;-0.72;100.00
55610;BME280;41486;52.502;13.486;2023-01-28T03:22:33;102182.56;;;-0.76;100.00
55610;BME280;41486;52.502;13.486;2023-01-28T03:25:24;102186.88;;;-0.75;100.00
55610;BME280;41486;52.502;13.486;2023-01-28T03:28:12;102183.47;;;-0.82;100.00
55610;BME280;41486;52.502;13.486;2023-01-28T03:31:03;102186.06;;;-0.77;100.00
55610;BME280;41486;52.502;13.486;2023-01-28T03:33:56;102190.41;;;-0.98;100.00
55610;BME280;41486;52.502;13.486;2023-01-28T03:36:44;102191.28;;;-0.97;100.00
55610;BME280;41486;52.502;13.486;2023-01-28T03:39:38;102181.84;;;-1.04;100.00
55610;BME280;41486;52.502;13.486;2023-01-28T03:42:10;102185.22;;;-0.81;100.00
55610;BME280;41486;52.502;13.486;2023-01-28T03:45:06;102185.25;;;-0.98;100.00
55610;BME280;41486;52.502;13.486;2023-01-28T03:47:36;102181.78;;;-0.90;100.00
55610;BME280;41486;52.502;13.486;2023-01-28T03:50:10;102172.22;;;-0.73;100.00
55610;BME280;41486;52.502;13.486;2023-01-28T03:52:57;102177.44;;;-0.82;100.00
55610;BME280;41486;52.502;13.486;2023-01-28T03:55:52;102181.72;;;-0.80;100.00
55610;BME280;41486;52.502;13.486;2023-01-28T03:58:20;102181.72;;;-0.69;100.00
55610;BME280;41486;52.502;13.486;2023-01-28T04:00:52;102181.63;;;-0.59;100.00
55610;BME280;41486;52.502;13.486;2023-01-28T04:03:21;102189.44;;;-0.67;100.00
55610;BME280;41486;52.502;13.486;2023-01-28T04:06:13;102182.53;;;-0.60;100.00
55610;BME280;41486;52.502;13.486;2023-01-28T04:08:59;102175.63;;;-0.60;100.00
55610;BME280;41486;52.502;13.486;2023-01-28T04:11:48;102179.91;;;-0.57;100.00
55610;BME280;41486;52.502;13.486;2023-01-28T04:14:24;102177.28;;;-0.48;100.00
55610;BME280;41486;52.502;13.486;2023-01-28T04:17:18;102178.22;;;-0.65;100.00
55610;BME280;41486;52.502;13.486;2023-01-28T04:19:46;102178.19;;;-0.57;100.00
55610;BME280;41486;52.502;13.486;2023-01-28T04:22:16;102183.34;;;-0.51;100.00
55610;BME280;41486;52.502;13.486;2023-01-28T04:24:45;102183.41;;;-0.61;100.00
55610;BME280;41486;52.502;13.486;2023-01-28T04:27:16;102177.31;;;-0.57;100.00
55610;BME280;41486;52.502;13.486;2023-01-28T04:29:45;102171.25;;;-0.50;100.00
55610;BME280;41486;52.502;13.486;2023-01-28T04:32:34;102183.31;;;-0.48;100.00
55610;BME280;41486;52.502;13.486;2023-01-28T04:35:08;102181.59;;;-0.47;99.77
55610;BME280;41486;52.502;13.486;2023-01-28T04:37:57;102181.59;;;-0.47;99.37
55610;BME280;41486;52.502;13.486;2023-01-28T04:40:30;102189.28;;;-0.33;98.43
55610;BME280;41486;52.502;13.486;2023-01-28T04:43:09;102184.97;;;-0.36;99.56
55610;BME280;41486;52.502;13.486;2023-01-28T04:45:58;102190.91;;;-0.23;97.77
55610;BME280;41486;52.502;13.486;2023-01-28T04:48:28;102188.25;;;-0.12;94.14
55610;BME280;41486;52.502;13.486;2023-01-28T04:51:23;102187.47;;;-0.20;93.99
55610;BME280;41486;52.502;13.486;2023-01-28T04:54:13;102176.28;;;-0.25;94.86
55610;BME280;41486;52.502;13.486;2023-01-28T04:56:41;102177.94;;;-0.18;95.50
55610;BME280;41486;52.502;13.486;2023-01-28T04:59:09;102177.09;;;-0.19;94.19
55610;BME280;41486;52.502;13.486;2023-01-28T05:01:37;102177.91;;;-0.12;91.65
55610;BME280;41486;52.502;13.486;2023-01-28T05:04:06;102183.97;;;-0.13;92.75
55610;BME280;41486;52.502;13.486;2023-01-28T05:06:37;102180.59;;;-0.24;91.55
55610;BME280;41486;52.502;13.486;2023-01-28T05:09:09;102176.31;;;-0.32;91.84
55610;BME280;41486;52.502;13.486;2023-01-28T05:11:38;102186.66;;;-0.28;92.64
55610;BME280;41486;52.502;13.486;2023-01-28T05:14:07;102190.09;;;-0.25;92.70
55610;BME280;41486;52.502;13.486;2023-01-28T05:16:44;102191.75;;;-0.16;92.33
55610;BME280;41486;52.502;13.486;2023-01-28T05:19:13;102201.03;;;0.13;90.68
55610;BME280;41486;52.502;13.486;2023-01-28T05:21:43;102206.28;;;0.04;92.28
55610;BME280;41486;52.502;13.486;2023-01-28T05:24:22;102207.25;;;-0.13;92.34
55610;BME280;41486;52.502;13.486;2023-01-28T05:26:51;102207.22;;;-0.07;92.43
55610;BME280;41486;52.502;13.486;2023-01-28T05:29:19;102208.16;;;-0.22;92.45
55610;BME280;41486;52.502;13.486;2023-01-28T05:31:47;102216.00;;;-0.34;91.61
55610;BME280;41486;52.502;13.486;2023-01-28T05:34:16;102206.47;;;-0.24;92.18
55610;BME280;41486;52.502;13.486;2023-01-28T05:36:44;102199.41;;;-0.04;91.60
55610;BME280;41486;52.502;13.486;2023-01-28T05:39:26;102205.28;;;0.22;90.70
55610;BME280;41486;52.502;13.486;2023-01-28T05:41:56;102203.75;;;-0.04;89.61
55610;BME280;41486;52.502;13.486;2023-01-28T05:44:24;102206.38;;;-0.12;90.89
55610;BME280;41486;52.502;13.486;2023-01-28T05:47:12;102198.69;;;-0.21;91.70
55610;BME280;41486;52.502;13.486;2023-01-28T05:50:16;102202.06;;;-0.10;92.29
55610;BME280;41486;52.502;13.486;2023-01-28T05:53:04;102207.16;;;0.01;91.66
55610;BME280;41486;52.502;13.486;2023-01-28T05:55:33;102205.41;;;0.03;89.77
55610;BME280;41486;52.502;13.486;2023-01-28T05:58:03;102212.34;;;0.03;89.68
55610;BME280;41486;52.502;13.486;2023-01-28T06:00:31;102207.09;;;0.09;90.35
55610;BME280;41486;52.502;13.486;2023-01-28T06:03:02;102207.16;;;0.01;90.88
55610;BME280;41486;52.502;13.486;2023-01-28T06:05:30;102206.38;;;-0.10;92.03
55610;BME280;41486;52.502;13.486;2023-01-28T06:07:59;102208.88;;;0.01;92.76
55610;BME280;41486;52.502;13.486;2023-01-28T06:10:29;102202.81;;;0.06;92.24
55610;BME280;41486;52.502;13.486;2023-01-28T06:12:57;102209.59;;;0.23;91.43
55610;BME280;41486;52.502;13.486;2023-01-28T06:15:47;102218.31;;;0.08;89.89
55610;BME280;41486;52.502;13.486;2023-01-28T06:18:22;102212.22;;;0.18;90.46
55610;BME280;41486;52.502;13.486;2023-01-28T06:20:50;102215.78;;;0.03;90.22
55610;BME280;41486;52.502;13.486;2023-01-28T06:23:18;102218.34;;;0.03;89.91
55610;BME280;41486;52.502;13.486;2023-01-28T06:25:52;102214.97;;;-0.05;90.26
55610;BME280;41486;52.502;13.486;2023-01-28T06:28:21;102221.03;;;-0.11;89.87
55610;BME280;41486;52.502;13.486;2023-01-28T06:30:52;102215.84;;;-0.11;89.91
55610;BME280;41486;52.502;13.486;2023-01-28T06:33:20;102214.19;;;-0.20;89.98
55610;BME280;41486;52.502;13.486;2023-01-28T06:35:49;102215.78;;;0.02;89.80
55610;BME280;41486;52.502;13.486;2023-01-28T06:38:18;102214.94;;;-0.01;90.38
55610;BME280;41486;52.502;13.486;2023-01-28T06:40:50;102221.03;;;-0.11;90.44
55610;BME280;41486;52.502;13.486;2023-01-28T06:43:18;102220.97;;;-0.02;90.74
55610;BME280;41486;52.502;13.486;2023-01-28T06:45:46;102218.41;;;0.00;89.92
55610;BME280;41486;52.502;13.486;2023-01-28T06:48:15;102221.00;;;-0.05;89.63
55610;BME280;41486;52.502;13.486;2023-01-28T06:50:45;102223.56;;;0.00;90.92
55610;BME280;41486;52.502;13.486;2023-01-28T06:53:13;102222.66;;;0.06;89.97
55610;BME280;41486;52.502;13.486;2023-01-28T06:55:41;102226.91;;;0.14;90.50
55610;BME280;41486;52.502;13.486;2023-01-28T06:58:10;102226.97;;;0.05;89.66
55610;BME280;41486;52.502;13.486;2023-01-28T07:00:38;102229.50;;;0.14;90.01
55610;BME280;41486;52.502;13.486;2023-01-28T07:03:06;102235.59;;;0.07;89.09
55610;BME280;41486;52.502;13.486;2023-01-28T07:05:35;102226.94;;;0.10;89.65
55610;BME280;41486;52.502;13.486;2023-01-28T07:08:04;102232.22;;;-0.01;89.74
55610;BME280;41486;52.502;13.486;2023-01-28T07:10:32;102230.38;;;0.13;89.23
55610;BME280;41486;52.502;13.486;2023-01-28T07:13:00;102230.47;;;-0.01;89.96
55610;BME280;41486;52.502;13.486;2023-01-28T07:15:29;102233.06;;;-0.05;90.48
55610;BME280;41486;52.502;13.486;2023-01-28T07:17:56;102243.25;;;0.24;89.62
55610;BME280;41486;52.502;13.486;2023-01-28T07:20:25;102244.16;;;0.14;90.16
55610;BME280;41486;52.502;13.486;2023-01-28T07:22:54;102239.75;;;0.30;88.30
55610;BME280;41486;52.502;13.486;2023-01-28T07:25:22;102239.91;;;0.05;88.35
55610;BME280;41486;52.502;13.486;2023-01-28T07:27:51;102230.41;;;0.09;88.49
55610;BME280;41486;52.502;13.486;2023-01-28T07:30:20;102237.25;;;0.19;88.92
55610;BME280;41486;52.502;13.486;2023-01-28T07:32:54;102228.56;;;0.25;89.50
55610;BME280;41486;52.502;13.486;2023-01-28T07:35:23;102238.03;;;0.26;88.40
55610;BME280;41486;52.502;13.486;2023-01-28T07:37:52;102235.31;;;0.41;88.12
55610;BME280;41486;52.502;13.486;2023-01-28T07:40:22;102231.09;;;0.33;87.98
55610;BME280;41486;52.502;13.486;2023-01-28T07:42:51;102231.91;;;0.38;87.52
55610;BME280;41486;52.502;13.486;2023-01-28T07:45:22;102239.75;;;0.30;85.62
55610;BME280;41486;52.502;13.486;2023-01-28T07:47:54;102234.41;;;0.49;85.77
55610;BME280;41486;52.502;13.486;2023-01-28T07:50:23;102240.34;;;0.61;84.60
55610;BME280;41486;52.502;13.486;2023-01-28T07:52:52;102239.72;;;0.35;82.44
55610;BME280;41486;52.502;13.486;2023-01-28T07:55:21;102245.69;;;0.43;83.90
55610;BME280;41486;52.502;13.486;2023-01-28T07:57:50;102249.06;;;0.50;85.81
55610;BME280;41486;52.502;13.486;2023-01-28T08:00:20;102243.13;;;0.38;85.56
55610;BME280;41486;52.502;13.486;2023-01-28T08:02:48;102243.91;;;0.50;85.93
55610;BME280;41486;52.502;13.486;2023-01-28T08:05:18;102245.63;;;0.51;86.08
55610;BME280;41486;52.502;13.486;2023-01-28T08:07:48;102239.63;;;0.42;85.43
55610;BME280;41486;52.502;13.486;2023-01-28T08:10:17;102249.94;;;0.50;85.84
55610;BME280;41486;52.502;13.486;2023-01-28T08:12:54;102257.69;;;0.55;86.10
55610;BME280;41486;52.502;13.486;2023-01-28T08:15:22;102254.16;;;0.60;85.02
55610;BME280;41486;52.502;13.486;2023-01-28T08:17:53;102254.00;;;0.79;84.07
55610;BME280;41486;52.502;13.486;2023-01-28T08:20:21;102256.84;;;0.51;84.26
55610;BME280;41486;52.502;13.486;2023-01-28T08:22:49;102262.03;;;0.48;84.77
55610;BME280;41486;52.502;13.486;2023-01-28T08:25:17;102266.44;;;0.40;84.94
55610;BME280;41486;52.502;13.486;2023-01-28T08:27:45;102258.63;;;0.47;84.57
55610;BME280;41486;52.502;13.486;2023-01-28T08:30:15;102260.25;;;0.56;81.58
55610;BME280;41486;52.502;13.486;2023-01-28T08:32:44;102260.22;;;0.61;82.50
55610;BME280;41486;52.502;13.486;2023-01-28T08:35:12;102267.25;;;0.46;81.19
55610;BME280;41486;52.502;13.486;2023-01-28T08:37:40;102270.59;;;0.59;81.19
55610;BME280;41486;52.502;13.486;2023-01-28T08:40:09;102287.84;;;0.60;78.94
55610;BME280;41486;52.502;13.486;2023-01-28T08:42:37;102288.75;;;0.56;78.42
55610;BME280;41486;52.502;13.486;2023-01-28T08:45:07;102279.09;;;0.74;79.04
55610;BME280;41486;52.502;13.486;2023-01-28T08:47:46;102283.00;;;1.20;75.65
55610;BME280;41486;52.502;13.486;2023-01-28T08:50:15;102285.91;;;0.86;75.79
55610;BME280;41486;52.502;13.486;2023-01-28T08:52:44;102280.84;;;0.75;78.13
55610;BME280;41486;52.502;13.486;2023-01-28T08:55:16;102278.28;;;0.67;78.44
55610;BME280;41486;52.502;13.486;2023-01-28T08:57:45;102288.34;;;1.01;74.89
55610;BME280;41486;52.502;13.486;2023-01-28T09:00:14;102289.13;;;1.11;74.90
55610;BME280;41486;52.502;13.486;2023-01-28T09:02:44;102293.72;;;0.81;77.31
55610;BME280;41486;52.502;13.486;2023-01-28T09:05:12;102286.09;;;0.62;76.35
55610;BME280;41486;52.502;13.486;2023-01-28T09:07:41;102297.34;;;0.60;77.87
55610;BME280;41486;52.502;13.486;2023-01-28T09:10:10;102296.41;;;0.72;78.54
55610;BME280;41486;52.502;13.486;2023-01-28T09:12:38;102302.38;;;0.80;78.34
55610;BME280;41486;52.502;13.486;2023-01-28T09:15:07;102296.97;;;1.02;73.04
55610;BME280;41486;52.502;13.486;2023-01-28T09:17:35;102300.38;;;1.08;71.94
55610;BME280;41486;52.502;13.486;2023-01-28T09:20:06;102310.66;;;1.16;72.76
55610;BME280;41486;52.502;13.486;2023-01-28T09:22:34;102310.00;;;0.96;75.47
55610;BME280;41486;52.502;13.486;2023-01-28T09:25:03;102320.53;;;0.77;75.15
55610;BME280;41486;52.502;13.486;2023-01-28T09:27:31;102308.34;;;0.91;75.21
55610;BME280;41486;52.502;13.486;2023-01-28T09:29:58;102327.19;;;1.04;74.41
55610;BME280;41486;52.502;13.486;2023-01-28T09:32:26;102326.44;;;0.93;75.99
55610;BME280;41486;52.502;13.486;2023-01-28T09:34:54;102323.06;;;0.88;76.23
55610;BME280;41486;52.502;13.486;2023-01-28T09:37:24;102327.25;;;0.98;76.95
55610;BME280;41486;52.502;13.486;2023-01-28T09:39:52;102324.78;;;0.86;75.89
55610;BME280;41486;52.502;13.486;2023-01-28T09:42:31;102323.91;;;0.88;76.75
55610;BME280;41486;52.502;13.486;2023-01-28T09:45:11;102314.22;;;1.04;75.73
55610;BME280;41486;52.502;13.486;2023-01-28T09:47:44;102319.38;;;1.09;75.47
55610;BME280;41486;52.502;13.486;2023-01-28T09:50:22;102326.44;;;0.96;74.87
55610;BME280;41486;52.502;13.486;2023-01-28T09:52:57;102328.22;;;0.88;75.24
55610;BME280;41486;52.502;13.486;2023-01-28T09:55:32;102320.34;;;0.97;75.15
55610;BME280;41486;52.502;13.486;2023-01-28T09:58:04;102329.09;;;0.87;75.75
55610;BME280;41486;52.502;13.486;2023-01-28T10:00:40;102335.88;;;1.00;76.34
55610;BME280;41486;52.502;13.486;2023-01-28T10:06:11;102331.47;;;1.12;74.95
55610;BME280;41486;52.502;13.486;2023-01-28T10:09:00;102334.22;;;0.96;74.75
55610;BME280;41486;52.502;13.486;2023-01-28T10:11:45;102323.66;;;1.15;76.00
55610;BME280;41486;52.502;13.486;2023-01-28T10:14:22;102323.63;;;1.16;73.97
55610;BME280;41486;52.502;13.486;2023-01-28T10:17:00;102321.31;;;0.88;74.27
55610;BME280;41486;52.502;13.486;2023-01-28T10:19:33;102321.22;;;0.99;75.16
55610;BME280;41486;52.502;13.486;2023-01-28T10:22:06;102325.56;;;0.96;72.77
55610;BME280;41486;52.502;13.486;2023-01-28T10:24:40;102323.63;;;1.16;72.95
55610;BME280;41486;52.502;13.486;2023-01-28T10:27:14;102325.44;;;1.06;71.69
55610;BME280;41486;52.502;13.486;2023-01-28T10:29:44;102323.63;;;1.18;72.46
55610;BME280;41486;52.502;13.486;2023-01-28T10:32:21;102323.75;;;1.04;73.71
55610;BME280;41486;52.502;13.486;2023-01-28T10:34:51;102318.75;;;0.84;74.15
55610;BME280;41486;52.502;13.486;2023-01-28T10:37:20;102309.16;;;0.93;73.70
55610;BME280;41486;52.502;13.486;2023-01-28T10:39:50;102303.16;;;0.91;74.48
55610;BME280;41486;52.502;13.486;2023-01-28T10:42:26;102311.19;;;1.48;72.58
55610;BME280;41486;52.502;13.486;2023-01-28T10:44:58;102311.53;;;1.20;73.46
55610;BME280;41486;52.502;13.486;2023-01-28T10:47:32;102304.31;;;1.45;72.29
55610;BME280;41486;52.502;13.486;2023-01-28T10:50:04;102307.28;;;1.09;72.11
55610;BME280;41486;52.502;13.486;2023-01-28T10:52:32;102319.44;;;1.06;74.09
55610;BME280;41486;52.502;13.486;2023-01-28T10:55:03;102309.13;;;0.98;73.31
55610;BME280;41486;52.502;13.486;2023-01-28T10:57:32;102319.22;;;1.24;73.87
55610;BME280;41486;52.502;13.486;2023-01-28T11:00:22;102308.72;;;1.38;73.83
55610;BME280;41486;52.502;13.486;2023-01-28T11:02:51;102313.28;;;1.15;73.63
55610;BME280;41486;52.502;13.486;2023-01-28T11:05:23;102316.50;;;1.40;73.66
55610;BME280;41486;52.502;13.486;2023-01-28T11:08:04;102309.50;;;1.45;73.86
55610;BME280;41486;52.502;13.486;2023-01-28T11:10:35;102307.09;;;1.30;73.25
55610;BME280;41486;52.502;13.486;2023-01-28T11:13:05;102310.41;;;1.42;73.27
55610;BME280;41486;52.502;13.486;2023-01-28T11:15:33;102301.13;;;1.21;72.11
55610;BME280;41486;52.502;13.486;2023-01-28T11:18:04;102306.00;;;1.49;70.30
55610;BME280;41486;52.502;13.486;2023-01-28T11:20:37;102304.41;;;1.36;72.03
55610;BME280;41486;52.502;13.486;2023-01-28T11:23:17;102304.47;;;1.31;74.22
55610;BME280;41486;52.502;13.486;2023-01-28T11:25:48;102300.72;;;1.57;72.10
55610;BME280;41486;52.502;13.486;2023-01-28T11:28:21;102297.56;;;1.30;72.43
55610;BME280;41486;52.502;13.486;2023-01-28T11:30:56;102295.59;;;1.52;71.32
55610;BME280;41486;52.502;13.486;2023-01-28T11:33:30;102297.47;;;1.39;69.34
55610;BME280;41486;52.502;13.486;2023-01-28T11:36:11;102295.97;;;1.20;70.84
55610;BME280;41486;52.502;13.486;2023-01-28T11:38:50;102289.81;;;1.27;72.07
55610;BME280;41486;52.502;13.486;2023-01-28T11:41:26;102284.72;;;1.18;72.30
55610;BME280;41486;52.502;13.486;2023-01-28T11:43:54;102282.03;;;1.27;73.80
55610;BME280;41486;52.502;13.486;2023-01-28T11:46:46;102283.69;;;1.34;72.63
55610;BME280;41486;52.502;13.486;2023-01-28T11:49:23;102276.13;;;1.14;73.10
55610;BME280;41486;52.502;13.486;2023-01-28T11:51:59;102285.38;;;1.37;74.15
55610;BME280;41486;52.502;13.486;2023-01-28T11:54:40;102269.16;;;1.19;72.91
55610;BME280;41486;52.502;13.486;2023-01-28T11:57:21;102263.00;;;1.30;74.88
55610;BME280;41486;52.502;13.486;2023-01-28T12:00:13;102256.59;;;1.60;73.05
55610;BME280;41486;52.502;13.486;2023-01-28T12:02:58;102268.03;;;1.42;72.05
55610;BME280;41486;52.502;13.486;2023-01-28T12:05:43;102267.75;;;1.65;71.55
55610;BME280;41486;52.502;13.486;2023-01-28T12:08:20;102266.09;;;1.56;71.17
55610;BME280;41486;52.502;13.486;2023-01-28T12:11:07;102270.66;;;1.40;73.84
55610;BME280;41486;52.502;13.486;2023-01-28T12:13:51;102267.25;;;1.35;73.66
55610;BME280;41486;52.502;13.486;2023-01-28T12:16:38;102257.75;;;1.34;73.99
55610;BME280;41486;52.502;13.486;2023-01-28T12:19:17;102257.88;;;1.23;73.19
55610;BME280;41486;52.502;13.486;2023-01-28T12:22:01;102249.31;;;1.14;74.26
55610;BME280;41486;52.502;13.486;2023-01-28T12:24:43;102253.34;;;1.39;75.16
55610;BME280;41486;52.502;13.486;2023-01-28T12:27:24;102259.72;;;1.82;72.25
55610;BME280;41486;52.502;13.486;2023-01-28T12:30:02;102259.63;;;1.88;73.48
55610;BME280;41486;52.502;13.486;2023-01-28T12:32:47;102263.09;;;1.89;74.37
55610;BME280;41486;52.502;13.486;2023-01-28T12:35:26;102255.09;;;1.40;78.27
55610;BME280;41486;52.502;13.486;2023-01-28T12:37:59;102248.59;;;1.74;77.32
55610;BME280;41486;52.502;13.486;2023-01-28T12:40:46;102246.75;;;1.84;74.52
55610;BME280;41486;52.502;13.486;2023-01-28T12:43:20;102255.47;;;1.78;76.16
55610;BME280;41486;52.502;13.486;2023-01-28T12:45:54;102252.06;;;1.73;77.84
55610;BME280;41486;52.502;13.486;2023-01-28T12:48:28;102250.50;;;1.63;79.81
55610;BME280;41486;52.502;13.486;2023-01-28T12:51:02;102245.44;;;1.52;80.70
55610;BME280;41486;52.502;13.486;2023-01-28T12:53:37;102244.41;;;1.65;80.47
55610;BME280;41486;52.502;13.486;2023-01-28T12:56:07;102240.41;;;1.38;82.14
55610;BME280;41486;52.502;13.486;2023-01-28T12:58:40;102236.00;;;1.45;82.00
55610;BME280;41486;52.502;13.486;2023-01-28T13:01:17;102237.72;;;1.47;81.40
55610;BME280;41486;52.502;13.486;2023-01-28T13:03:50;102238.50;;;1.52;79.42
55610;BME280;41486;52.502;13.486;2023-01-28T13:06:25;102238.59;;;1.45;80.52
55610;BME280;41486;52.502;13.486;2023-01-28T13:08:59;102230.94;;;1.35;81.70
55610;BME280;41486;52.502;13.486;2023-01-28T13:11:32;102226.31;;;1.57;80.99
55610;BME280;41486;52.502;13.486;2023-01-28T13:14:02;102227.28;;;1.52;80.89
55610;BME280;41486;52.502;13.486;2023-01-28T13:16:32;102218.44;;;1.65;80.04
55610;BME280;41486;52.502;13.486;2023-01-28T13:19:06;102214.19;;;1.60;79.54